Hovedside
METAR-TAF:

METAR-TAF

Lufthavner :

Aalborg, Danmark

Aalborg lufthavn

breddegrad: 57-06N, lengdegrad: 009-51E, høyde over havet: 3 m

Gjeldene værobservasjon

Denne rapporten ble laget for 11 minutter siden, klokken 07:20 UTC
Vind 14 kt fra Vest-nordvest
Temperatur 12°C
Luftfuktighet 71%
Trykk 1018 hPa
Sikt 10 km eller mer

METAR: EKYT 210720Z AUTO 29014KT 9999NDV NCD 12/07 Q1018

Tid: 09:31 (07:31 UTC)

Varsel

Denne rapporten ble laget for 2 timer og 3 minutter siden, klokken 05:28 UTC
Varsel gyldig fra 21. klokken 06 UTC til 22. klokken 06 UTC
Vind 10 kt fra Vest
Sikt 10 km eller mer
Få skyer i en høyde av 4000 ft
Midlertidig
fra 21. klokken 09 UTC til 21. klokken 18 UTC
Vind 15 kt fra Vest-nordvest med vindkast opp mot 28 kt
Midlertidig
fra 21. klokken 21 UTC til 22. klokken 06 UTC
Sikt: 2000 m
Brutte skyer i en høyde av 400 ft
dis

TAF: EKYT 210528Z 2106/2206 28010KT 9999 FEW040 TEMPO 2109/2118 29015G28KT TEMPO 2121/2206 2000 BR BKN004

Værobservasjoner og værvarsel for over 4000 flyplasser (METAR- og TAF-rapporter).

Tilgjengelige stasjoner er representert av de røde og gule prikkene på kartet.

Hold musepekeren over prikken for å se navnet på stasjonen.

Klikk så for å se værobservasjoner og -varsler.

For å forandre kartet kan du klikke på den grønne knappen med svart kryss for å zoome inn, på den grønne knappen med strek for å zoome ut, eller på de grønne pilene for å se tilstøtende kart.


METAR-TAF: